Terminal Aerodrome Forecast
Issued by NWS

Home | Current Version | Previous Version | Text Only | Print | Product List | Glossary On
Versions: 1 2 3 4 5 6 7 8 9 10 11 12 13 14 15 16 17 18 19 20 21 22 23 24 25 26 27
191
FTUS43 KDLH 080409 AAB
TAFHIB
TAF AMD
KHIB 080409Z 0804/0824 30015G25KT 3SM -SN BR OVC018
      TEMPO 0804/0807 1 1/2SM -SN BR
     FM080900 34016G26KT 5SM -SN BLSN OVC020
     FM081600 34015G25KT P6SM -SN SCT025 OVC035=

USA.gov is the U.S. government's official web portal to all federal, state and local government web resources and services.